sensor_id;sensor_type;location;lat;lon;timestamp;P1;durP1;ratioP1;P2;durP2;ratioP2
82292;SDS011;71892;14.836;105.234;2023-11-18T00:01:33;27.98;;;11.77;;
82292;SDS011;71892;14.836;105.234;2023-11-18T00:03:59;37.60;;;14.88;;
82292;SDS011;71892;14.836;105.234;2023-11-18T00:06:26;35.85;;;12.00;;
82292;SDS011;71892;14.836;105.234;2023-11-18T00:08:53;25.00;;;10.15;;
82292;SDS011;71892;14.836;105.234;2023-11-18T00:11:20;27.05;;;8.95;;
82292;SDS011;71892;14.836;105.234;2023-11-18T00:13:46;21.30;;;7.45;;
82292;SDS011;71892;14.836;105.234;2023-11-18T00:16:13;21.27;;;7.93;;
82292;SDS011;71892;14.836;105.234;2023-11-18T00:18:41;30.88;;;8.48;;
82292;SDS011;71892;14.836;105.234;2023-11-18T00:21:08;15.43;;;7.20;;
82292;SDS011;71892;14.836;105.234;2023-11-18T00:23:34;19.33;;;7.40;;
82292;SDS011;71892;14.836;105.234;2023-11-18T00:26:01;17.05;;;7.13;;
82292;SDS011;71892;14.836;105.234;2023-11-18T00:28:27;22.15;;;6.95;;
82292;SDS011;71892;14.836;105.234;2023-11-18T00:30:54;17.40;;;7.03;;
82292;SDS011;71892;14.836;105.234;2023-11-18T00:33:20;21.20;;;7.43;;
82292;SDS011;71892;14.836;105.234;2023-11-18T00:35:47;18.92;;;7.20;;
82292;SDS011;71892;14.836;105.234;2023-11-18T00:38:13;22.35;;;8.18;;
82292;SDS011;71892;14.836;105.234;2023-11-18T00:40:40;26.75;;;6.55;;
82292;SDS011;71892;14.836;105.234;2023-11-18T00:43:06;40.95;;;12.95;;
82292;SDS011;71892;14.836;105.234;2023-11-18T00:45:33;17.73;;;6.95;;
82292;SDS011;71892;14.836;105.234;2023-11-18T00:48:00;20.77;;;6.63;;
82292;SDS011;71892;14.836;105.234;2023-11-18T00:50:26;18.52;;;7.30;;
82292;SDS011;71892;14.836;105.234;2023-11-18T00:52:52;71.18;;;18.10;;
82292;SDS011;71892;14.836;105.234;2023-11-18T00:55:19;16.55;;;6.20;;
82292;SDS011;71892;14.836;105.234;2023-11-18T00:57:46;18.15;;;6.70;;
82292;SDS011;71892;14.836;105.234;2023-11-18T01:00:13;18.27;;;6.80;;
82292;SDS011;71892;14.836;105.234;2023-11-18T01:02:44;17.67;;;6.57;;
82292;SDS011;71892;14.836;105.234;2023-11-18T01:05:12;15.93;;;5.68;;
82292;SDS011;71892;14.836;105.234;2023-11-18T01:07:39;18.48;;;5.65;;
82292;SDS011;71892;14.836;105.234;2023-11-18T01:10:09;16.67;;;6.10;;
82292;SDS011;71892;14.836;105.234;2023-11-18T01:12:36;17.83;;;7.10;;
82292;SDS011;71892;14.836;105.234;2023-11-18T01:15:03;13.63;;;5.72;;
82292;SDS011;71892;14.836;105.234;2023-11-18T01:17:30;15.23;;;6.05;;
82292;SDS011;71892;14.836;105.234;2023-11-18T01:19:57;16.50;;;6.07;;
82292;SDS011;71892;14.836;105.234;2023-11-18T01:22:24;17.73;;;6.88;;
82292;SDS011;71892;14.836;105.234;2023-11-18T01:24:51;17.40;;;6.05;;
82292;SDS011;71892;14.836;105.234;2023-11-18T01:27:17;14.68;;;5.93;;
82292;SDS011;71892;14.836;105.234;2023-11-18T01:29:45;18.08;;;6.32;;
82292;SDS011;71892;14.836;105.234;2023-11-18T01:32:14;18.75;;;5.68;;
82292;SDS011;71892;14.836;105.234;2023-11-18T01:34:40;18.55;;;5.95;;
82292;SDS011;71892;14.836;105.234;2023-11-18T01:37:08;12.07;;;5.13;;
82292;SDS011;71892;14.836;105.234;2023-11-18T01:39:35;13.93;;;6.18;;
82292;SDS011;71892;14.836;105.234;2023-11-18T01:42:02;16.65;;;5.50;;
82292;SDS011;71892;14.836;105.234;2023-11-18T01:44:29;16.25;;;6.30;;
82292;SDS011;71892;14.836;105.234;2023-11-18T01:46:57;16.63;;;6.00;;
82292;SDS011;71892;14.836;105.234;2023-11-18T01:49:24;15.90;;;6.47;;
82292;SDS011;71892;14.836;105.234;2023-11-18T01:51:55;13.48;;;6.00;;
82292;SDS011;71892;14.836;105.234;2023-11-18T01:54:22;18.05;;;5.75;;
82292;SDS011;71892;14.836;105.234;2023-11-18T01:56:49;17.42;;;6.40;;
82292;SDS011;71892;14.836;105.234;2023-11-18T01:59:15;13.65;;;6.30;;
82292;SDS011;71892;14.836;105.234;2023-11-18T02:01:49;17.17;;;5.18;;
82292;SDS011;71892;14.836;105.234;2023-11-18T02:04:18;14.27;;;6.22;;
82292;SDS011;71892;14.836;105.234;2023-11-18T02:06:47;16.75;;;5.68;;
82292;SDS011;71892;14.836;105.234;2023-11-18T02:09:18;15.10;;;5.75;;
82292;SDS011;71892;14.836;105.234;2023-11-18T02:14:41;13.68;;;5.70;;
82292;SDS011;71892;14.836;105.234;2023-11-18T02:17:10;16.30;;;6.05;;
82292;SDS011;71892;14.836;105.234;2023-11-18T02:19:40;11.50;;;5.43;;
82292;SDS011;71892;14.836;105.234;2023-11-18T02:22:10;16.30;;;5.65;;
82292;SDS011;71892;14.836;105.234;2023-11-18T02:24:37;12.65;;;5.40;;
82292;SDS011;71892;14.836;105.234;2023-11-18T02:27:06;9.23;;;5.07;;
82292;SDS011;71892;14.836;105.234;2023-11-18T02:29:34;16.25;;;5.18;;
82292;SDS011;71892;14.836;105.234;2023-11-18T02:35:02;18.35;;;5.50;;
82292;SDS011;71892;14.836;105.234;2023-11-18T02:37:44;13.85;;;5.05;;
82292;SDS011;71892;14.836;105.234;2023-11-18T02:40:17;15.88;;;5.90;;
82292;SDS011;71892;14.836;105.234;2023-11-18T02:42:45;12.55;;;5.00;;
82292;SDS011;71892;14.836;105.234;2023-11-18T02:45:15;14.10;;;5.32;;
82292;SDS011;71892;14.836;105.234;2023-11-18T02:47:44;12.30;;;5.10;;
82292;SDS011;71892;14.836;105.234;2023-11-18T02:50:11;14.70;;;4.93;;
82292;SDS011;71892;14.836;105.234;2023-11-18T02:52:39;15.13;;;5.35;;
82292;SDS011;71892;14.836;105.234;2023-11-18T02:55:06;12.80;;;4.72;;
82292;SDS011;71892;14.836;105.234;2023-11-18T02:57:37;10.68;;;4.70;;
82292;SDS011;71892;14.836;105.234;2023-11-18T03:00:04;9.27;;;3.97;;
82292;SDS011;71892;14.836;105.234;2023-11-18T03:02:36;14.02;;;4.93;;
82292;SDS011;71892;14.836;105.234;2023-11-18T03:05:05;11.95;;;4.93;;
82292;SDS011;71892;14.836;105.234;2023-11-18T03:07:33;12.13;;;4.88;;
82292;SDS011;71892;14.836;105.234;2023-11-18T03:09:59;13.77;;;5.10;;
82292;SDS011;71892;14.836;105.234;2023-11-18T03:12:25;16.55;;;5.07;;
82292;SDS011;71892;14.836;105.234;2023-11-18T03:14:52;11.60;;;4.68;;
82292;SDS011;71892;14.836;105.234;2023-11-18T03:17:19;10.77;;;4.38;;
82292;SDS011;71892;14.836;105.234;2023-11-18T03:19:45;15.70;;;5.75;;
82292;SDS011;71892;14.836;105.234;2023-11-18T03:22:12;16.65;;;5.13;;
82292;SDS011;71892;14.836;105.234;2023-11-18T03:24:38;16.63;;;5.15;;
82292;SDS011;71892;14.836;105.234;2023-11-18T03:27:05;13.70;;;5.47;;
82292;SDS011;71892;14.836;105.234;2023-11-18T03:29:34;11.38;;;5.43;;
82292;SDS011;71892;14.836;105.234;2023-11-18T03:32:01;11.75;;;4.85;;
82292;SDS011;71892;14.836;105.234;2023-11-18T03:34:29;10.45;;;4.30;;
82292;SDS011;71892;14.836;105.234;2023-11-18T03:36:55;11.43;;;4.38;;
82292;SDS011;71892;14.836;105.234;2023-11-18T03:39:22;18.08;;;4.93;;
82292;SDS011;71892;14.836;105.234;2023-11-18T03:41:48;11.93;;;5.07;;
82292;SDS011;71892;14.836;105.234;2023-11-18T03:44:15;14.20;;;4.70;;
82292;SDS011;71892;14.836;105.234;2023-11-18T03:46:42;14.43;;;5.53;;
82292;SDS011;71892;14.836;105.234;2023-11-18T03:49:08;14.88;;;5.40;;
82292;SDS011;71892;14.836;105.234;2023-11-18T03:51:35;12.45;;;4.90;;
82292;SDS011;71892;14.836;105.234;2023-11-18T03:54:01;13.95;;;4.72;;
82292;SDS011;71892;14.836;105.234;2023-11-18T03:56:28;8.65;;;4.38;;
82292;SDS011;71892;14.836;105.234;2023-11-18T03:58:54;16.90;;;4.90;;
82292;SDS011;71892;14.836;105.234;2023-11-18T04:01:21;13.13;;;4.45;;
82292;SDS011;71892;14.836;105.234;2023-11-18T04:03:54;10.70;;;4.45;;
82292;SDS011;71892;14.836;105.234;2023-11-18T04:06:21;17.70;;;5.03;;
82292;SDS011;71892;14.836;105.234;2023-11-18T04:08:48;11.75;;;4.40;;
82292;SDS011;71892;14.836;105.234;2023-11-18T04:11:14;13.57;;;4.72;;
82292;SDS011;71892;14.836;105.234;2023-11-18T04:13:41;10.45;;;4.05;;
82292;SDS011;71892;14.836;105.234;2023-11-18T04:16:11;12.48;;;4.30;;
82292;SDS011;71892;14.836;105.234;2023-11-18T04:18:41;18.52;;;5.20;;
82292;SDS011;71892;14.836;105.234;2023-11-18T04:21:09;12.75;;;3.72;;
82292;SDS011;71892;14.836;105.234;2023-11-18T04:23:37;16.13;;;4.82;;
82292;SDS011;71892;14.836;105.234;2023-11-18T04:26:04;13.60;;;4.72;;
82292;SDS011;71892;14.836;105.234;2023-11-18T04:28:31;10.85;;;5.13;;
82292;SDS011;71892;14.836;105.234;2023-11-18T04:30:57;9.73;;;4.65;;
82292;SDS011;71892;14.836;105.234;2023-11-18T04:33:24;13.60;;;4.70;;
82292;SDS011;71892;14.836;105.234;2023-11-18T04:35:50;11.13;;;4.75;;
82292;SDS011;71892;14.836;105.234;2023-11-18T04:38:17;13.95;;;4.72;;
82292;SDS011;71892;14.836;105.234;2023-11-18T04:40:44;10.43;;;4.07;;
82292;SDS011;71892;14.836;105.234;2023-11-18T04:43:11;11.82;;;4.30;;
82292;SDS011;71892;14.836;105.234;2023-11-18T04:45:38;13.23;;;4.20;;
82292;SDS011;71892;14.836;105.234;2023-11-18T04:48:05;9.23;;;4.38;;
82292;SDS011;71892;14.836;105.234;2023-11-18T04:50:31;10.10;;;4.50;;
82292;SDS011;71892;14.836;105.234;2023-11-18T04:53:00;11.77;;;4.70;;
82292;SDS011;71892;14.836;105.234;2023-11-18T04:55:28;16.50;;;5.03;;
82292;SDS011;71892;14.836;105.234;2023-11-18T04:57:55;12.20;;;3.65;;
82292;SDS011;71892;14.836;105.234;2023-11-18T05:00:21;9.98;;;3.60;;
82292;SDS011;71892;14.836;105.234;2023-11-18T05:02:48;9.70;;;4.22;;
82292;SDS011;71892;14.836;105.234;2023-11-18T05:05:17;15.32;;;4.30;;
82292;SDS011;71892;14.836;105.234;2023-11-18T05:07:43;8.10;;;4.20;;
82292;SDS011;71892;14.836;105.234;2023-11-18T05:10:10;14.68;;;4.78;;
82292;SDS011;71892;14.836;105.234;2023-11-18T05:12:37;12.90;;;4.10;;
82292;SDS011;71892;14.836;105.234;2023-11-18T05:15:05;9.15;;;3.75;;
82292;SDS011;71892;14.836;105.234;2023-11-18T05:17:35;10.52;;;4.13;;
82292;SDS011;71892;14.836;105.234;2023-11-18T05:20:03;9.52;;;3.72;;
82292;SDS011;71892;14.836;105.234;2023-11-18T05:22:30;11.65;;;4.43;;
82292;SDS011;71892;14.836;105.234;2023-11-18T05:24:57;11.35;;;4.00;;
82292;SDS011;71892;14.836;105.234;2023-11-18T05:27:24;15.05;;;4.57;;
82292;SDS011;71892;14.836;105.234;2023-11-18T05:29:52;9.35;;;4.05;;
82292;SDS011;71892;14.836;105.234;2023-11-18T05:32:27;9.20;;;4.18;;
82292;SDS011;71892;14.836;105.234;2023-11-18T05:34:54;10.80;;;4.50;;
82292;SDS011;71892;14.836;105.234;2023-11-18T05:37:23;13.98;;;4.10;;
82292;SDS011;71892;14.836;105.234;2023-11-18T05:39:50;9.18;;;3.80;;
82292;SDS011;71892;14.836;105.234;2023-11-18T05:42:25;9.30;;;4.28;;
82292;SDS011;71892;14.836;105.234;2023-11-18T05:44:51;9.73;;;4.00;;
82292;SDS011;71892;14.836;105.234;2023-11-18T05:47:27;9.35;;;3.83;;
82292;SDS011;71892;14.836;105.234;2023-11-18T05:52:20;16.42;;;4.53;;
82292;SDS011;71892;14.836;105.234;2023-11-18T05:54:48;13.05;;;4.93;;
82292;SDS011;71892;14.836;105.234;2023-11-18T05:57:15;9.48;;;4.60;;
82292;SDS011;71892;14.836;105.234;2023-11-18T05:59:44;10.88;;;4.47;;
82292;SDS011;71892;14.836;105.234;2023-11-18T06:02:14;12.05;;;4.28;;
82292;SDS011;71892;14.836;105.234;2023-11-18T06:04:46;11.40;;;4.50;;
82292;SDS011;71892;14.836;105.234;2023-11-18T06:07:13;10.65;;;3.70;;
82292;SDS011;71892;14.836;105.234;2023-11-18T06:09:40;7.90;;;4.13;;
82292;SDS011;71892;14.836;105.234;2023-11-18T06:12:10;8.70;;;4.05;;
82292;SDS011;71892;14.836;105.234;2023-11-18T06:14:38;9.63;;;3.80;;
82292;SDS011;71892;14.836;105.234;2023-11-18T06:17:04;12.10;;;4.22;;
82292;SDS011;71892;14.836;105.234;2023-11-18T06:19:33;10.18;;;4.20;;
82292;SDS011;71892;14.836;105.234;2023-11-18T06:22:00;10.95;;;3.95;;
82292;SDS011;71892;14.836;105.234;2023-11-18T06:24:27;13.27;;;4.70;;
82292;SDS011;71892;14.836;105.234;2023-11-18T06:26:53;8.98;;;3.72;;
82292;SDS011;71892;14.836;105.234;2023-11-18T06:29:20;8.88;;;3.65;;
82292;SDS011;71892;14.836;105.234;2023-11-18T06:31:46;13.88;;;4.82;;
82292;SDS011;71892;14.836;105.234;2023-11-18T06:34:13;13.05;;;4.68;;
82292;SDS011;71892;14.836;105.234;2023-11-18T06:36:40;9.13;;;4.03;;
82292;SDS011;71892;14.836;105.234;2023-11-18T06:39:06;14.20;;;4.40;;
82292;SDS011;71892;14.836;105.234;2023-11-18T06:41:33;9.35;;;4.20;;
82292;SDS011;71892;14.836;105.234;2023-11-18T06:44:02;13.25;;;4.25;;
82292;SDS011;71892;14.836;105.234;2023-11-18T06:46:35;13.55;;;4.40;;
82292;SDS011;71892;14.836;105.234;2023-11-18T06:49:05;12.88;;;4.53;;
82292;SDS011;71892;14.836;105.234;2023-11-18T06:51:40;10.32;;;4.60;;
82292;SDS011;71892;14.836;105.234;2023-11-18T06:54:07;11.90;;;4.80;;
82292;SDS011;71892;14.836;105.234;2023-11-18T06:56:39;11.27;;;5.13;;
82292;SDS011;71892;14.836;105.234;2023-11-18T06:59:10;15.13;;;5.32;;
82292;SDS011;71892;14.836;105.234;2023-11-18T07:01:38;13.93;;;5.15;;
82292;SDS011;71892;14.836;105.234;2023-11-18T07:04:09;13.02;;;4.97;;
82292;SDS011;71892;14.836;105.234;2023-11-18T07:06:36;14.40;;;4.65;;
82292;SDS011;71892;14.836;105.234;2023-11-18T07:09:07;14.32;;;5.32;;
82292;SDS011;71892;14.836;105.234;2023-11-18T07:11:42;13.77;;;5.03;;
82292;SDS011;71892;14.836;105.234;2023-11-18T07:14:10;18.63;;;11.38;;
82292;SDS011;71892;14.836;105.234;2023-11-18T07:16:40;9.30;;;5.03;;
82292;SDS011;71892;14.836;105.234;2023-11-18T07:19:08;14.65;;;5.78;;
82292;SDS011;71892;14.836;105.234;2023-11-18T07:21:45;15.88;;;5.40;;
82292;SDS011;71892;14.836;105.234;2023-11-18T07:24:14;15.45;;;5.07;;
82292;SDS011;71892;14.836;105.234;2023-11-18T07:26:42;14.55;;;5.20;;
82292;SDS011;71892;14.836;105.234;2023-11-18T07:29:09;9.90;;;4.90;;
82292;SDS011;71892;14.836;105.234;2023-11-18T07:31:36;8.50;;;4.72;;
82292;SDS011;71892;14.836;105.234;2023-11-18T07:34:03;11.50;;;6.20;;
82292;SDS011;71892;14.836;105.234;2023-11-18T07:36:31;11.32;;;4.93;;
82292;SDS011;71892;14.836;105.234;2023-11-18T07:38:58;16.13;;;5.25;;
82292;SDS011;71892;14.836;105.234;2023-11-18T07:41:30;14.95;;;7.32;;
82292;SDS011;71892;14.836;105.234;2023-11-18T07:43:57;9.88;;;5.22;;
82292;SDS011;71892;14.836;105.234;2023-11-18T07:46:23;15.25;;;6.72;;
82292;SDS011;71892;14.836;105.234;2023-11-18T07:48:50;18.15;;;5.60;;
82292;SDS011;71892;14.836;105.234;2023-11-18T07:51:18;9.55;;;4.88;;
82292;SDS011;71892;14.836;105.234;2023-11-18T07:53:48;12.85;;;5.70;;
82292;SDS011;71892;14.836;105.234;2023-11-18T07:56:15;11.13;;;5.20;;
82292;SDS011;71892;14.836;105.234;2023-11-18T07:58:43;13.38;;;4.57;;
82292;SDS011;71892;14.836;105.234;2023-11-18T08:01:12;12.93;;;4.57;;
82292;SDS011;71892;14.836;105.234;2023-11-18T08:03:42;13.50;;;5.22;;
82292;SDS011;71892;14.836;105.234;2023-11-18T08:06:10;13.40;;;5.65;;
82292;SDS011;71892;14.836;105.234;2023-11-18T08:08:37;14.68;;;5.20;;
82292;SDS011;71892;14.836;105.234;2023-11-18T08:11:04;10.43;;;4.70;;
82292;SDS011;71892;14.836;105.234;2023-11-18T08:13:31;12.32;;;5.57;;
82292;SDS011;71892;14.836;105.234;2023-11-18T08:15:57;9.57;;;5.10;;
82292;SDS011;71892;14.836;105.234;2023-11-18T08:18:24;17.45;;;6.03;;
82292;SDS011;71892;14.836;105.234;2023-11-18T08:20:52;10.93;;;5.10;;
82292;SDS011;71892;14.836;105.234;2023-11-18T08:23:19;9.93;;;4.68;;
82292;SDS011;71892;14.836;105.234;2023-11-18T08:25:45;14.38;;;5.93;;
82292;SDS011;71892;14.836;105.234;2023-11-18T08:28:12;12.80;;;5.60;;
82292;SDS011;71892;14.836;105.234;2023-11-18T08:30:39;9.50;;;4.70;;
82292;SDS011;71892;14.836;105.234;2023-11-18T08:33:05;18.45;;;5.97;;
82292;SDS011;71892;14.836;105.234;2023-11-18T08:35:35;14.38;;;4.68;;
82292;SDS011;71892;14.836;105.234;2023-11-18T08:38:02;13.73;;;5.45;;
82292;SDS011;71892;14.836;105.234;2023-11-18T08:40:29;10.38;;;5.25;;
82292;SDS011;71892;14.836;105.234;2023-11-18T08:42:55;11.73;;;4.97;;
82292;SDS011;71892;14.836;105.234;2023-11-18T08:45:24;12.10;;;4.88;;
82292;SDS011;71892;14.836;105.234;2023-11-18T08:48:01;18.85;;;5.80;;
82292;SDS011;71892;14.836;105.234;2023-11-18T08:50:35;19.00;;;6.55;;
82292;SDS011;71892;14.836;105.234;2023-11-18T08:53:05;12.35;;;5.43;;
82292;SDS011;71892;14.836;105.234;2023-11-18T08:55:35;16.02;;;5.70;;
82292;SDS011;71892;14.836;105.234;2023-11-18T08:58:16;11.95;;;6.47;;
82292;SDS011;71892;14.836;105.234;2023-11-18T09:00:51;15.40;;;5.38;;
82292;SDS011;71892;14.836;105.234;2023-11-18T09:03:26;8.85;;;4.88;;
82292;SDS011;71892;14.836;105.234;2023-11-18T09:05:54;18.98;;;6.00;;
82292;SDS011;71892;14.836;105.234;2023-11-18T09:08:43;12.27;;;5.05;;
82292;SDS011;71892;14.836;105.234;2023-11-18T09:11:10;12.00;;;5.18;;
82292;SDS011;71892;14.836;105.234;2023-11-18T09:13:42;11.60;;;4.90;;
82292;SDS011;71892;14.836;105.234;2023-11-18T09:16:10;12.73;;;5.68;;
82292;SDS011;71892;14.836;105.234;2023-11-18T09:18:38;11.98;;;5.43;;
82292;SDS011;71892;14.836;105.234;2023-11-18T09:21:04;12.43;;;5.78;;
82292;SDS011;71892;14.836;105.234;2023-11-18T09:23:32;11.85;;;5.38;;
82292;SDS011;71892;14.836;105.234;2023-11-18T09:26:00;14.10;;;6.63;;
82292;SDS011;71892;14.836;105.234;2023-11-18T09:28:33;12.75;;;6.07;;
82292;SDS011;71892;14.836;105.234;2023-11-18T09:31:01;19.55;;;5.45;;
82292;SDS011;71892;14.836;105.234;2023-11-18T09:33:31;18.45;;;5.78;;
82292;SDS011;71892;14.836;105.234;2023-11-18T09:35:59;11.35;;;5.45;;
82292;SDS011;71892;14.836;105.234;2023-11-18T09:38:35;21.20;;;6.43;;
82292;SDS011;71892;14.836;105.234;2023-11-18T09:41:03;13.38;;;5.35;;
82292;SDS011;71892;14.836;105.234;2023-11-18T09:43:33;15.25;;;5.68;;
82292;SDS011;71892;14.836;105.234;2023-11-18T09:46:23;13.80;;;5.47;;
82292;SDS011;71892;14.836;105.234;2023-11-18T09:48:51;15.38;;;5.32;;
82292;SDS011;71892;14.836;105.234;2023-11-18T09:51:22;14.73;;;6.00;;
82292;SDS011;71892;14.836;105.234;2023-11-18T09:53:53;19.98;;;6.40;;
82292;SDS011;71892;14.836;105.234;2023-11-18T09:56:30;18.17;;;5.78;;
82292;SDS011;71892;14.836;105.234;2023-11-18T09:59:15;20.77;;;7.25;;
82292;SDS011;71892;14.836;105.234;2023-11-18T10:01:53;15.25;;;6.13;;
82292;SDS011;71892;14.836;105.234;2023-11-18T10:04:23;15.73;;;6.05;;
82292;SDS011;71892;14.836;105.234;2023-11-18T10:06:53;20.92;;;6.20;;
82292;SDS011;71892;14.836;105.234;2023-11-18T10:09:24;17.05;;;7.95;;
82292;SDS011;71892;14.836;105.234;2023-11-18T10:12:02;27.13;;;7.22;;
82292;SDS011;71892;14.836;105.234;2023-11-18T10:14:33;16.13;;;6.25;;
82292;SDS011;71892;14.836;105.234;2023-11-18T10:17:04;19.35;;;6.88;;
82292;SDS011;71892;14.836;105.234;2023-11-18T10:22:29;12.98;;;5.82;;
82292;SDS011;71892;14.836;105.234;2023-11-18T10:24:57;12.05;;;6.03;;
82292;SDS011;71892;14.836;105.234;2023-11-18T10:27:27;22.02;;;6.68;;
82292;SDS011;71892;14.836;105.234;2023-11-18T10:29:57;14.43;;;6.65;;
82292;SDS011;71892;14.836;105.234;2023-11-18T10:32:27;13.82;;;6.88;;
82292;SDS011;71892;14.836;105.234;2023-11-18T10:34:57;21.20;;;6.40;;
82292;SDS011;71892;14.836;105.234;2023-11-18T10:37:23;19.00;;;6.40;;
82292;SDS011;71892;14.836;105.234;2023-11-18T10:39:53;18.73;;;7.18;;
82292;SDS011;71892;14.836;105.234;2023-11-18T10:42:19;12.23;;;6.53;;
82292;SDS011;71892;14.836;105.234;2023-11-18T10:44:55;19.17;;;7.53;;
82292;SDS011;71892;14.836;105.234;2023-11-18T10:47:26;17.67;;;7.75;;
82292;SDS011;71892;14.836;105.234;2023-11-18T10:49:56;16.77;;;7.20;;
82292;SDS011;71892;14.836;105.234;2023-11-18T10:52:26;28.13;;;7.63;;
82292;SDS011;71892;14.836;105.234;2023-11-18T10:55:00;16.45;;;7.43;;
82292;SDS011;71892;14.836;105.234;2023-11-18T10:57:36;21.85;;;9.07;;
82292;SDS011;71892;14.836;105.234;2023-11-18T11:00:07;22.23;;;7.95;;
82292;SDS011;71892;14.836;105.234;2023-11-18T11:02:42;13.85;;;6.35;;
82292;SDS011;71892;14.836;105.234;2023-11-18T11:05:09;16.73;;;8.90;;
82292;SDS011;71892;14.836;105.234;2023-11-18T11:07:42;17.60;;;7.80;;
82292;SDS011;71892;14.836;105.234;2023-11-18T11:10:09;22.02;;;9.45;;
82292;SDS011;71892;14.836;105.234;2023-11-18T11:12:49;26.08;;;9.43;;
82292;SDS011;71892;14.836;105.234;2023-11-18T11:15:22;23.75;;;10.52;;
82292;SDS011;71892;14.836;105.234;2023-11-18T11:17:54;21.55;;;9.82;;
82292;SDS011;71892;14.836;105.234;2023-11-18T11:20:34;17.23;;;8.35;;
82292;SDS011;71892;14.836;105.234;2023-11-18T11:29:27;17.75;;;7.63;;
82292;SDS011;71892;14.836;105.234;2023-11-18T11:32:18;16.48;;;6.47;;
82292;SDS011;71892;14.836;105.234;2023-11-18T11:35:06;17.30;;;6.80;;
82292;SDS011;71892;14.836;105.234;2023-11-18T11:37:42;17.20;;;8.27;;
82292;SDS011;71892;14.836;105.234;2023-11-18T11:40:10;17.35;;;7.13;;
82292;SDS011;71892;14.836;105.234;2023-11-18T11:42:48;15.93;;;6.50;;
82292;SDS011;71892;14.836;105.234;2023-11-18T11:45:25;20.80;;;6.93;;
82292;SDS011;71892;14.836;105.234;2023-11-18T11:47:56;13.60;;;6.63;;
82292;SDS011;71892;14.836;105.234;2023-11-18T11:51:03;16.45;;;5.88;;
82292;SDS011;71892;14.836;105.234;2023-11-18T11:56:41;19.90;;;6.97;;
82292;SDS011;71892;14.836;105.234;2023-11-18T11:59:08;17.63;;;6.70;;
82292;SDS011;71892;14.836;105.234;2023-11-18T12:01:39;17.85;;;6.90;;
82292;SDS011;71892;14.836;105.234;2023-11-18T12:04:12;18.55;;;6.93;;
82292;SDS011;71892;14.836;105.234;2023-11-18T12:06:53;16.83;;;6.78;;
82292;SDS011;71892;14.836;105.234;2023-11-18T12:09:21;14.57;;;7.15;;
82292;SDS011;71892;14.836;105.234;2023-11-18T12:11:48;12.27;;;5.65;;
82292;SDS011;71892;14.836;105.234;2023-11-18T12:14:15;11.00;;;6.10;;
82292;SDS011;71892;14.836;105.234;2023-11-18T12:19:46;17.23;;;6.30;;
82292;SDS011;71892;14.836;105.234;2023-11-18T12:25:40;15.43;;;6.43;;
82292;SDS011;71892;14.836;105.234;2023-11-18T12:28:15;13.55;;;6.72;;
82292;SDS011;71892;14.836;105.234;2023-11-18T12:30:46;15.43;;;6.72;;
82292;SDS011;71892;14.836;105.234;2023-11-18T12:33:23;14.38;;;5.80;;
82292;SDS011;71892;14.836;105.234;2023-11-18T12:41:44;15.98;;;6.63;;
82292;SDS011;71892;14.836;105.234;2023-11-18T12:46:54;18.63;;;6.65;;
82292;SDS011;71892;14.836;105.234;2023-11-18T12:49:38;18.15;;;6.65;;
82292;SDS011;71892;14.836;105.234;2023-11-18T12:52:08;15.13;;;6.35;;
82292;SDS011;71892;14.836;105.234;2023-11-18T12:54:36;15.30;;;7.72;;
82292;SDS011;71892;14.836;105.234;2023-11-18T12:57:03;19.98;;;6.30;;
82292;SDS011;71892;14.836;105.234;2023-11-18T12:59:33;17.05;;;7.93;;
82292;SDS011;71892;14.836;105.234;2023-11-18T13:02:00;20.08;;;8.30;;
82292;SDS011;71892;14.836;105.234;2023-11-18T13:04:32;10.98;;;6.10;;
82292;SDS011;71892;14.836;105.234;2023-11-18T13:07:05;16.52;;;7.75;;
82292;SDS011;71892;14.836;105.234;2023-11-18T13:09:36;17.88;;;7.28;;
82292;SDS011;71892;14.836;105.234;2023-11-18T13:12:04;15.85;;;7.20;;
82292;SDS011;71892;14.836;105.234;2023-11-18T13:14:34;13.85;;;6.50;;
82292;SDS011;71892;14.836;105.234;2023-11-18T13:17:02;20.23;;;7.85;;
82292;SDS011;71892;14.836;105.234;2023-11-18T13:19:32;14.07;;;6.43;;
82292;SDS011;71892;14.836;105.234;2023-11-18T13:22:00;11.55;;;6.63;;
82292;SDS011;71892;14.836;105.234;2023-11-18T13:24:26;17.27;;;7.88;;
82292;SDS011;71892;14.836;105.234;2023-11-18T13:26:55;19.55;;;7.18;;
82292;SDS011;71892;14.836;105.234;2023-11-18T13:29:25;15.10;;;6.95;;
82292;SDS011;71892;14.836;105.234;2023-11-18T13:31:51;21.00;;;8.02;;
82292;SDS011;71892;14.836;105.234;2023-11-18T13:34:18;19.20;;;7.90;;
82292;SDS011;71892;14.836;105.234;2023-11-18T13:36:46;14.40;;;7.25;;
82292;SDS011;71892;14.836;105.234;2023-11-18T13:39:17;15.77;;;7.40;;
82292;SDS011;71892;14.836;105.234;2023-11-18T13:41:49;18.38;;;7.60;;
82292;SDS011;71892;14.836;105.234;2023-11-18T13:44:32;19.23;;;11.35;;
82292;SDS011;71892;14.836;105.234;2023-11-18T13:47:05;11.40;;;6.60;;
82292;SDS011;71892;14.836;105.234;2023-11-18T13:49:33;16.08;;;7.65;;
82292;SDS011;71892;14.836;105.234;2023-11-18T13:52:00;19.00;;;7.90;;
82292;SDS011;71892;14.836;105.234;2023-11-18T13:54:28;12.57;;;7.82;;
82292;SDS011;71892;14.836;105.234;2023-11-18T13:57:00;16.52;;;7.78;;
82292;SDS011;71892;14.836;105.234;2023-11-18T13:59:29;22.23;;;8.80;;
82292;SDS011;71892;14.836;105.234;2023-11-18T14:01:56;16.75;;;8.95;;
82292;SDS011;71892;14.836;105.234;2023-11-18T14:04:27;19.40;;;7.45;;
82292;SDS011;71892;14.836;105.234;2023-11-18T14:06:53;14.85;;;7.57;;
82292;SDS011;71892;14.836;105.234;2023-11-18T14:09:23;20.55;;;7.95;;
82292;SDS011;71892;14.836;105.234;2023-11-18T14:11:55;16.52;;;8.13;;
82292;SDS011;71892;14.836;105.234;2023-11-18T14:14:22;17.25;;;7.45;;
82292;SDS011;71892;14.836;105.234;2023-11-18T14:16:50;16.42;;;7.40;;
82292;SDS011;71892;14.836;105.234;2023-11-18T14:19:27;17.10;;;7.40;;
82292;SDS011;71892;14.836;105.234;2023-11-18T14:21:56;14.20;;;7.05;;
82292;SDS011;71892;14.836;105.234;2023-11-18T14:24:23;14.73;;;7.47;;
82292;SDS011;71892;14.836;105.234;2023-11-18T14:26:57;13.57;;;7.60;;
82292;SDS011;71892;14.836;105.234;2023-11-18T14:29:23;18.30;;;7.20;;
82292;SDS011;71892;14.836;105.234;2023-11-18T14:31:51;15.05;;;7.35;;
82292;SDS011;71892;14.836;105.234;2023-11-18T14:34:18;15.25;;;7.07;;
82292;SDS011;71892;14.836;105.234;2023-11-18T14:36:44;20.98;;;7.10;;
82292;SDS011;71892;14.836;105.234;2023-11-18T14:39:10;15.85;;;7.20;;
82292;SDS011;71892;14.836;105.234;2023-11-18T14:41:39;15.95;;;7.45;;
82292;SDS011;71892;14.836;105.234;2023-11-18T14:44:06;19.55;;;7.65;;
82292;SDS011;71892;14.836;105.234;2023-11-18T14:46:35;14.95;;;6.88;;
82292;SDS011;71892;14.836;105.234;2023-11-18T14:49:06;16.77;;;7.43;;
82292;SDS011;71892;14.836;105.234;2023-11-18T14:51:33;17.58;;;7.78;;
82292;SDS011;71892;14.836;105.234;2023-11-18T14:54:01;17.83;;;7.63;;
82292;SDS011;71892;14.836;105.234;2023-11-18T14:56:27;23.02;;;8.15;;